Terminal Aerodrome Forecast
Issued by NWS Grand Forks, ND

Home | Current Version | Previous Version | Text Only | Print | Product List | Glossary On
Versions: 1 2 3 4 5 6 7 8 9 10 11 12 13 14 15 16 17 18 19 20
822
FTUS43 KFGF 082137 AAA
TAFFAR
TAF AMD
KFAR 082137Z 0822/0918 31017KT P6SM -SN OVC025
      TEMPO 0822/0824 3SM -SN BKN015
     FM090000 32015KT P6SM OVC035
      TEMPO 0900/0902 OVC025
     FM090700 30007KT P6SM BKN035=

USA.gov is the U.S. government's official web portal to all federal, state and local government web resources and services.